To NAV CANADA Home Page Login to a new session Search on AWWS site Disclaimer Vers la page française équivalente Tips FAQ What's new on the site To the Forecasts and Observations / NOTAM section To "File a Flight Plan" website Publications and other links Update of the User's profile FIC Telephone Numbers My Weather Data Folder Route Weather Data Regional Weather Data Local Weather Data To the Forecasts and Observations / NOTAM section
Request Generated 06/25/2022 at 13:53:59 UTC . Weather information available at that time is displayed.

METAR/TAF

BAKER LAKE/NU    

SPECI CYBK 251314Z 32010KT 20SM SCT170 SCT220 08/02 A3003 RMK AC3CI1 SLP171=
LWIS CYBK 251300Z AUTO 31011G16KT 07/02 A3003=
LWIS CYBK 251200Z AUTO 32010KT 06/01 A3003=
METAR CYBK 251100Z 32012KT 20SM SCT170 BKN220 05/01 A3002 RMK AC3CI2 SLP167=

TAF AMD CYBK 251311Z 2512/2524 CNL
RMK NO OBS. NXT FCST BY 251800Z=
Your time UTC time
Weather data provided by Environment Canada and NAV CANADA